Time;durP1;ratioP1;P1;durP2;ratioP2;P2;SDS_P1;SDS_P2;PMS_P1;PMS_P2;Temp;Humidity;BMP_temperature;BMP_pressure;BME280_temperature;BME280_humidity;BME280_pressure;Samples;Min_cycle;Max_cycle;Signal;HPM_P1;HPM_P2
2023/01/25 00:00:02;;;;;;;12.23;6.10;;;;;;;-145.69;100.00;52670.16;5115559;28;20196;-79
2023/01/25 00:02:30;;;;;;;13.40;5.90;;;;;;;-145.69;100.00;52672.13;5115581;28;20204;-79
2023/01/25 00:04:57;;;;;;;12.40;6.20;;;;;;;-145.69;100.00;52666.19;5114411;28;20198;-79
2023/01/25 00:07:23;;;;;;;14.10;6.73;;;;;;;-145.69;100.00;52705.81;5115842;28;20198;-79
2023/01/25 00:09:49;;;;;;;11.30;5.73;;;;;;;-145.69;100.00;52687.97;5115437;28;20241;-80
2023/01/25 00:12:16;;;;;;;12.03;6.33;;;;;;;-145.69;100.00;52709.78;5115486;28;20656;-79
2023/01/25 00:14:42;;;;;;;14.10;6.20;;;;;;;-145.69;100.00;52670.16;5115469;28;20197;-80
2023/01/25 00:17:09;;;;;;;12.03;6.23;;;;;;;-145.69;100.00;52713.72;5115313;28;20201;-79
2023/01/25 00:19:37;;;;;;;12.83;6.33;;;;;;;-145.69;100.00;52739.47;5115354;28;20197;-79
2023/01/25 00:22:03;;;;;;;12.40;6.63;;;;;;;-145.69;100.00;52684.03;5115346;28;20193;-79
2023/01/25 00:24:30;;;;;;;16.40;7.53;;;;;;;-145.69;100.00;52687.97;5115461;28;20198;-79
2023/01/25 00:26:56;;;;;;;13.10;6.30;;;;;;;-145.69;100.00;52666.19;5114513;28;20247;-79
2023/01/25 00:29:23;;;;;;;12.63;6.60;;;;;;;-145.69;100.00;52687.97;5115199;28;20193;-78
2023/01/25 00:32:07;;;;;;;14.63;7.07;;;;;;;-145.69;100.00;52684.03;5114930;28;20683;-79
2023/01/25 00:34:50;;;;;;;15.87;6.80;;;;;;;-145.69;100.00;52662.22;5114923;28;20215;-79
2023/01/25 00:37:24;;;;;;;12.93;6.60;;;;;;;-145.69;100.00;52725.63;5113615;28;20694;-79
2023/01/25 00:39:51;;;;;;;13.53;6.97;;;;;;;-145.69;100.00;52713.72;5114466;28;20598;-79
2023/01/25 00:42:19;;;;;;;12.93;7.17;;;;;;;-145.69;100.00;52676.09;5114849;28;20201;-79
2023/01/25 00:44:46;;;;;;;14.40;7.10;;;;;;;-145.69;100.00;52695.91;5114765;28;20229;-79
2023/01/25 00:47:13;;;;;;;17.10;6.97;;;;;;;-145.69;100.00;52687.97;5114877;28;20197;-79
2023/01/25 00:49:41;;;;;;;15.43;6.57;;;;;;;-145.69;100.00;52686.00;5114669;28;20541;-80
2023/01/25 00:52:09;;;;;;;13.00;6.73;;;;;;;-145.69;100.00;52674.13;5114777;28;20380;-80
2023/01/25 00:54:36;;;;;;;13.53;6.67;;;;;;;-145.69;100.00;52715.72;5114624;28;20197;-79
2023/01/25 00:57:02;;;;;;;15.07;7.33;;;;;;;-145.69;100.00;52727.59;5114355;28;20208;-79
2023/01/25 00:59:29;;;;;;;12.53;6.60;;;;;;;-145.69;100.00;52678.09;5111260;28;20202;-79
2023/01/25 01:01:56;;;;;;;16.87;7.83;;;;;;;-145.69;100.00;52674.13;5114374;28;20686;-79
2023/01/25 01:04:24;;;;;;;15.93;7.03;;;;;;;-145.69;100.00;52674.13;5114420;28;20189;-79
2023/01/25 01:06:52;;;;;;;16.63;7.83;;;;;;;-145.69;100.00;52715.72;5114433;28;20197;-79
2023/01/25 01:09:21;;;;;;;17.50;7.40;;;;;;;-145.69;100.00;52678.09;5114148;28;20648;-79
2023/01/25 01:11:48;;;;;;;17.83;8.53;;;;;;;-145.69;100.00;52695.91;5114154;28;20225;-79
2023/01/25 01:14:15;;;;;;;16.90;8.17;;;;;;;-145.69;100.00;52686.00;5114394;28;20198;-80
2023/01/25 01:16:41;;;;;;;15.07;7.30;;;;;;;-145.69;100.00;52662.22;5113996;28;20209;-79
2023/01/25 01:19:08;;;;;;;14.60;6.97;;;;;;;-145.69;100.00;52703.81;5114009;28;20548;-79
2023/01/25 01:21:34;;;;;;;17.23;7.67;;;;;;;-145.69;100.00;52682.03;5114094;28;20671;-79
2023/01/25 01:24:01;;;;;;;15.40;6.90;;;;;;;-145.69;100.00;52695.91;5114479;28;20198;-79
2023/01/25 01:26:29;;;;;;;17.67;7.63;;;;;;;-145.69;100.00;52680.06;5114024;28;20225;-79
2023/01/25 01:28:57;;;;;;;16.00;7.70;;;;;;;-145.69;100.00;52689.97;5114306;28;20625;-79
2023/01/25 01:31:24;;;;;;;12.10;6.57;;;;;;;-145.69;100.00;52689.97;5113658;28;20687;-79
2023/01/25 01:33:52;;;;;;;16.20;7.53;;;;;;;-145.69;100.00;52719.66;5113819;28;20202;-79
2023/01/25 01:36:21;;;;;;;15.63;7.53;;;;;;;-145.69;100.00;52699.88;5113444;28;20223;-79
2023/01/25 01:38:48;;;;;;;16.00;7.20;;;;;;;-145.69;100.00;52697.88;5113809;28;20209;-79
2023/01/25 01:41:16;;;;;;;14.13;7.00;;;;;;;-145.69;100.00;52642.44;5113845;28;20217;-80
2023/01/25 01:43:44;;;;;;;16.63;7.63;;;;;;;-145.69;100.00;52693.94;5113802;28;20201;-80
2023/01/25 01:46:15;;;;;;;16.60;7.27;;;;;;;-145.69;100.00;52693.94;5113634;28;20602;-79
2023/01/25 01:48:47;;;;;;;14.57;7.87;;;;;;;-145.69;100.00;52687.97;5113459;28;20201;-79
2023/01/25 01:51:19;;;;;;;18.90;8.57;;;;;;;-145.69;100.00;52719.66;5113768;28;20230;-80
2023/01/25 01:53:50;;;;;;;19.93;8.13;;;;;;;-145.69;100.00;52731.56;5113846;28;20202;-79
2023/01/25 01:56:23;;;;;;;15.17;7.23;;;;;;;-145.69;100.00;52717.69;5113246;28;20201;-80
2023/01/25 01:58:55;;;;;;;14.33;7.37;;;;;;;-145.69;100.00;52709.78;5113381;28;20197;-79
2023/01/25 02:01:22;;;;;;;17.00;7.93;;;;;;;-145.69;100.00;52721.66;5113418;28;20204;-79
2023/01/25 02:03:50;;;;;;;14.37;7.57;;;;;;;-145.69;100.00;52701.84;5113074;28;20200;-79
2023/01/25 02:06:25;;;;;;;17.70;7.70;;;;;;;-145.69;100.00;52697.88;5114020;28;20193;-79
2023/01/25 02:08:52;;;;;;;17.97;8.17;;;;;;;-145.69;100.00;52674.13;5113503;28;20200;-79
2023/01/25 02:11:19;;;;;;;17.80;8.30;;;;;;;-145.69;100.00;52703.81;5113457;28;20229;-79
2023/01/25 02:13:48;;;;;;;20.03;8.13;;;;;;;-145.69;100.00;52682.03;5113386;28;20205;-79
2023/01/25 02:16:19;;;;;;;20.50;8.37;;;;;;;-145.69;100.00;52689.97;5113519;28;20202;-79
2023/01/25 02:18:46;;;;;;;17.13;8.70;;;;;;;-145.69;100.00;52674.13;5113371;28;20197;-80
2023/01/25 02:21:12;;;;;;;19.50;8.03;;;;;;;-145.69;100.00;52672.13;5113327;28;20601;-79
2023/01/25 02:23:47;;;;;;;18.33;7.83;;;;;;;-145.69;100.00;52707.78;5113325;28;20197;-79
2023/01/25 02:26:17;;;;;;;13.80;6.67;;;;;;;-145.69;100.00;52693.94;5112969;28;20221;-79
2023/01/25 02:28:49;;;;;;;16.57;7.40;;;;;;;-145.69;100.00;52697.88;5117248;28;20201;-79
2023/01/25 02:31:15;;;;;;;17.77;8.23;;;;;;;-145.69;100.00;52697.88;5117522;28;20256;-79
2023/01/25 02:33:42;;;;;;;19.63;8.13;;;;;;;-145.69;100.00;52656.28;5117281;28;20190;-80
2023/01/25 02:36:20;;;;;;;17.33;8.47;;;;;;;-145.69;100.00;52695.91;5117830;28;20521;-79
2023/01/25 02:38:51;;;;;;;16.43;7.27;;;;;;;-145.69;100.00;52678.09;5117252;28;20200;-79
2023/01/25 02:41:24;;;;;;;16.13;7.47;;;;;;;-145.69;100.00;52684.03;5117479;28;20205;-79
2023/01/25 02:43:51;;;;;;;19.50;7.70;;;;;;;-145.69;100.00;52672.13;5117326;28;20633;-80
2023/01/25 02:46:24;;;;;;;15.63;7.90;;;;;;;-145.69;100.00;52697.88;5117217;28;20252;-79
2023/01/25 02:48:51;;;;;;;17.20;7.50;;;;;;;-145.69;100.00;52693.94;5117122;28;20208;-80
2023/01/25 02:51:18;;;;;;;19.90;8.47;;;;;;;-145.69;100.00;52672.13;5115833;28;20233;-79
2023/01/25 02:53:44;;;;;;;15.07;7.47;;;;;;;-145.69;100.00;52687.97;5108023;28;20556;-79
2023/01/25 02:56:11;;;;;;;19.53;8.67;;;;;;;-145.69;100.00;52644.41;5109811;28;20467;-80
2023/01/25 02:58:39;;;;;;;16.47;7.90;;;;;;;-145.69;100.00;52721.66;5116786;28;20196;-80
2023/01/25 03:01:05;;;;;;;18.53;7.80;;;;;;;-145.69;100.00;52678.09;5116918;28;20676;-79
2023/01/25 03:03:32;;;;;;;18.63;8.03;;;;;;;-145.69;100.00;52686.00;5116576;28;20197;-78
2023/01/25 03:05:58;;;;;;;18.87;7.87;;;;;;;-145.69;100.00;52701.84;5116691;28;20223;-79
2023/01/25 03:08:25;;;;;;;16.80;8.33;;;;;;;-145.69;100.00;52650.34;5116913;28;20198;-79
2023/01/25 03:10:52;;;;;;;15.47;8.03;;;;;;;-145.69;100.00;52701.84;5116794;28;20229;-80
2023/01/25 03:13:18;;;;;;;16.57;7.33;;;;;;;-145.69;100.00;52713.72;5116747;28;20254;-80
2023/01/25 03:15:46;;;;;;;16.43;7.60;;;;;;;-145.69;100.00;52666.19;5116562;28;20205;-80
2023/01/25 03:18:12;;;;;;;16.67;7.93;;;;;;;-145.69;100.00;52703.81;5116232;28;20200;-79
2023/01/25 03:20:39;;;;;;;17.13;7.33;;;;;;;-145.69;100.00;52709.78;5116052;28;20549;-80
2023/01/25 03:23:05;;;;;;;15.30;6.80;;;;;;;-145.69;100.00;52662.22;5116186;28;20221;-80
2023/01/25 03:25:32;;;;;;;19.47;8.17;;;;;;;-145.69;100.00;52705.81;5116376;28;20711;-79
2023/01/25 03:27:58;;;;;;;18.53;8.43;;;;;;;-145.69;100.00;52713.72;5116488;28;20205;-79
2023/01/25 03:30:25;;;;;;;18.00;8.10;;;;;;;-145.69;100.00;52697.88;5116383;28;20202;-80
2023/01/25 03:32:53;;;;;;;17.87;7.50;;;;;;;-145.69;100.00;52687.97;5116023;28;20572;-79
2023/01/25 03:35:19;;;;;;;19.20;10.20;;;;;;;-145.69;100.00;52703.81;5115263;28;20834;-79
2023/01/25 03:37:45;;;;;;;18.20;8.63;;;;;;;-145.69;100.00;52693.94;5116023;28;20204;-79
2023/01/25 03:40:12;;;;;;;20.77;8.33;;;;;;;-145.69;100.00;52674.13;5116030;28;20190;-79
2023/01/25 03:42:39;;;;;;;19.10;7.73;;;;;;;-145.69;100.00;52729.56;5116114;28;20200;-80
2023/01/25 03:45:06;;;;;;;17.97;8.63;;;;;;;-145.69;100.00;52674.13;5115987;28;20221;-80
2023/01/25 03:47:33;;;;;;;17.67;7.57;;;;;;;-145.69;100.00;52709.78;5115760;27;20212;-79
2023/01/25 03:50:01;;;;;;;20.90;8.90;;;;;;;-145.69;100.00;52678.09;5116186;28;20541;-79
2023/01/25 03:52:28;;;;;;;19.23;8.63;;;;;;;-145.69;100.00;52713.72;5115815;28;20225;-80
2023/01/25 03:54:55;;;;;;;19.87;8.43;;;;;;;-145.69;100.00;52719.66;5116166;28;20278;-80
2023/01/25 03:57:21;;;;;;;19.10;8.10;;;;;;;-145.69;100.00;52676.09;5115758;28;20678;-80
2023/01/25 03:59:48;;;;;;;21.10;9.10;;;;;;;-145.69;100.00;52689.97;5115409;28;20675;-79
2023/01/25 04:02:14;;;;;;;20.13;8.57;;;;;;;-145.69;100.00;52684.03;5115639;28;20205;-80
2023/01/25 04:04:41;;;;;;;20.67;8.63;;;;;;;-145.69;100.00;52705.81;5115768;28;20198;-79
2023/01/25 04:07:09;;;;;;;20.87;8.73;;;;;;;-145.69;100.00;52684.03;5115517;28;20197;-80
2023/01/25 04:09:35;;;;;;;16.40;7.10;;;;;;;-145.69;100.00;52709.78;5116093;28;20208;-80
2023/01/25 04:12:01;;;;;;;20.67;8.50;;;;;;;-145.69;100.00;52701.84;5115458;28;20591;-80
2023/01/25 04:14:28;;;;;;;17.43;8.10;;;;;;;-145.69;100.00;52715.72;5115188;28;20206;-79
2023/01/25 04:16:54;;;;;;;18.03;8.07;;;;;;;-145.69;100.00;52662.22;5115708;28;20212;-80
2023/01/25 04:19:21;;;;;;;17.43;7.67;;;;;;;-145.69;100.00;52678.09;5115576;28;20197;-79
2023/01/25 04:21:47;;;;;;;17.10;7.53;;;;;;;-145.69;100.00;52705.81;5115162;28;20185;-80
2023/01/25 04:24:15;;;;;;;19.17;7.97;;;;;;;-145.69;100.00;52699.88;5115542;28;20198;-80
2023/01/25 04:26:42;;;;;;;19.53;8.03;;;;;;;-145.69;100.00;52662.22;5115219;28;20205;-80
2023/01/25 04:29:09;;;;;;;22.20;8.23;;;;;;;-145.69;100.00;52686.00;5114763;28;20197;-80
2023/01/25 04:31:36;;;;;;;18.33;8.20;;;;;;;-145.69;100.00;52709.78;5115180;28;20236;-80
2023/01/25 04:34:02;;;;;;;16.97;7.47;;;;;;;-145.69;100.00;52713.72;5115292;28;20198;-81
2023/01/25 04:36:29;;;;;;;15.70;7.47;;;;;;;-145.69;100.00;52674.13;5115148;28;20202;-81
2023/01/25 04:38:55;;;;;;;18.10;7.90;;;;;;;-145.69;100.00;52715.72;5115228;28;20201;-80
2023/01/25 04:41:25;;;;;;;18.07;8.07;;;;;;;-145.69;100.00;52713.72;5115201;28;20201;-81
2023/01/25 04:43:52;;;;;;;15.40;7.70;;;;;;;-145.69;100.00;52697.88;5114737;28;20193;-81
2023/01/25 04:46:18;;;;;;;19.13;8.30;;;;;;;-145.69;100.00;52695.91;5114681;28;20237;-81
2023/01/25 04:48:44;;;;;;;21.97;9.77;;;;;;;-145.69;100.00;52721.66;5114892;28;20224;-80
2023/01/25 04:51:13;;;;;;;22.83;8.70;;;;;;;-145.69;100.00;52693.94;5114123;28;20225;-81
2023/01/25 04:53:39;;;;;;;19.87;8.37;;;;;;;-145.69;100.00;52729.56;5106572;28;20194;-81
2023/01/25 04:56:07;;;;;;;19.83;8.63;;;;;;;-145.69;100.00;52693.94;5094395;28;20198;-80
2023/01/25 04:58:34;;;;;;;21.50;9.60;;;;;;;-145.69;100.00;52713.72;5114331;28;20208;-79
2023/01/25 05:01:02;;;;;;;18.20;8.00;;;;;;;-145.69;100.00;52697.88;5114714;28;20208;-80
2023/01/25 05:03:29;;;;;;;21.90;9.13;;;;;;;-145.69;100.00;52693.94;5114706;28;20537;-80
2023/01/25 05:05:55;;;;;;;19.70;8.43;;;;;;;-145.69;100.00;52711.75;5114544;28;20212;-80
2023/01/25 05:08:22;;;;;;;17.17;7.53;;;;;;;-145.69;100.00;52709.78;5114541;28;20223;-80
2023/01/25 05:10:48;;;;;;;21.97;8.70;;;;;;;-145.69;100.00;52687.97;5114122;28;20840;-80
2023/01/25 05:13:15;;;;;;;18.37;8.60;;;;;;;-145.69;100.00;52693.94;5113962;28;20221;-80
2023/01/25 05:15:42;;;;;;;17.80;7.77;;;;;;;-145.69;100.00;52725.63;5114364;28;20202;-80
2023/01/25 05:18:09;;;;;;;21.20;7.73;;;;;;;-145.69;100.00;52693.94;5114509;28;20197;-81
2023/01/25 05:20:35;;;;;;;18.43;8.60;;;;;;;-145.69;100.00;52654.31;5114032;28;20193;-80
2023/01/25 05:23:02;;;;;;;19.47;7.83;;;;;;;-145.69;100.00;52711.75;5113981;28;20212;-80
2023/01/25 05:28:13;;;;;;;16.43;8.63;;;;;;;-145.69;100.00;52686.00;5093849;28;20283;-80
2023/01/25 05:30:39;;;;;;;19.47;8.50;;;;;;;-145.69;100.00;52693.94;5106180;28;20574;-80
2023/01/25 05:33:07;;;;;;;19.50;8.37;;;;;;;-145.69;100.00;52693.94;5113728;28;20224;-80
2023/01/25 05:35:33;;;;;;;19.83;8.63;;;;;;;-145.69;100.00;52725.63;5113966;28;20201;-80
2023/01/25 05:38:00;;;;;;;17.93;8.50;;;;;;;-145.69;100.00;52735.50;5113790;28;20204;-80
2023/01/25 05:40:27;;;;;;;20.73;8.47;;;;;;;-145.69;100.00;52705.81;5113825;28;20201;-80
2023/01/25 05:42:54;;;;;;;24.47;9.60;;;;;;;-145.69;100.00;52709.78;5113751;28;20194;-80
2023/01/25 05:45:21;;;;;;;28.87;9.50;;;;;;;-145.69;100.00;52743.44;5113865;28;20282;-80
2023/01/25 05:47:52;;;;;;;22.73;8.77;;;;;;;-145.69;100.00;52670.16;5113690;28;20201;-81
2023/01/25 05:50:20;;;;;;;18.97;8.53;;;;;;;-145.69;100.00;52741.47;5113441;28;20228;-81
2023/01/25 05:52:46;;;;;;;20.23;8.60;;;;;;;-145.69;100.00;52693.94;5113461;28;20703;-80
2023/01/25 05:55:13;;;;;;;17.83;7.83;;;;;;;-145.69;100.00;52725.63;5113700;28;20230;-81
2023/01/25 05:57:39;;;;;;;16.93;7.57;;;;;;;-145.69;100.00;52701.84;5113789;28;20193;-82
2023/01/25 06:00:07;;;;;;;19.67;7.87;;;;;;;-145.69;100.00;52709.78;5113596;28;20201;-81
2023/01/25 06:02:34;;;;;;;18.73;7.80;;;;;;;-145.69;100.00;52713.72;5112560;28;20202;-82
2023/01/25 06:05:00;;;;;;;17.80;7.00;;;;;;;-145.69;100.00;52697.88;5113540;28;20662;-82
2023/01/25 06:07:28;;;;;;;15.37;7.13;;;;;;;-145.69;100.00;52721.66;5113764;28;20221;-82
2023/01/25 06:09:55;;;;;;;15.73;6.50;;;;;;;-145.69;100.00;52705.81;5113408;28;20201;-82
2023/01/25 06:12:22;;;;;;;16.97;6.37;;;;;;;-145.69;100.00;52697.88;5113637;28;20236;-82
2023/01/25 06:14:48;;;;;;;14.57;6.90;;;;;;;-145.69;100.00;52699.88;5113515;28;20201;-81
2023/01/25 06:17:15;;;;;;;14.67;7.10;;;;;;;-145.69;100.00;52719.66;5113364;28;20198;-81
2023/01/25 06:19:41;;;;;;;17.90;7.33;;;;;;;-145.69;100.00;52709.78;5113288;28;20288;-81
2023/01/25 06:22:08;;;;;;;19.83;7.97;;;;;;;-145.69;100.00;52701.84;5113452;28;20216;-81
2023/01/25 06:24:36;;;;;;;18.23;7.50;;;;;;;-145.69;100.00;52717.69;5113580;28;20197;-82
2023/01/25 06:27:02;;;;;;;15.50;7.13;;;;;;;-145.69;100.00;52699.88;5113274;28;20205;-82
2023/01/25 06:29:29;;;;;;;17.53;8.10;;;;;;;-145.69;100.00;52717.69;5113328;28;20212;-81
2023/01/25 06:31:55;;;;;;;20.07;7.93;;;;;;;-145.69;100.00;52713.72;5112901;28;20224;-82
2023/01/25 06:34:23;;;;;;;16.17;7.20;;;;;;;-145.69;100.00;52715.72;5113362;28;20657;-82
2023/01/25 06:36:50;;;;;;;22.00;8.43;;;;;;;-145.69;100.00;52658.28;5113133;28;20664;-82
2023/01/25 06:39:16;;;;;;;18.67;8.23;;;;;;;-145.69;100.00;52721.66;5113268;28;20205;-82
2023/01/25 06:41:44;;;;;;;21.33;8.90;;;;;;;-145.69;100.00;52745.41;5111989;28;20208;-82
2023/01/25 06:44:11;;;;;;;20.13;8.23;;;;;;;-145.69;100.00;52717.69;5113503;28;20197;-82
2023/01/25 06:46:37;;;;;;;20.70;8.43;;;;;;;-145.69;100.00;52705.81;5112836;28;20232;-82
2023/01/25 06:49:04;;;;;;;18.93;8.83;;;;;;;-145.69;100.00;52711.75;5113349;28;20197;-81
2023/01/25 06:51:30;;;;;;;22.27;9.07;;;;;;;-145.69;100.00;52725.63;5110603;28;20197;-81
2023/01/25 06:53:57;;;;;;;20.63;8.50;;;;;;;-145.69;100.00;52721.66;5113057;28;20648;-81
2023/01/25 06:56:24;;;;;;;18.87;7.93;;;;;;;-145.69;100.00;52715.72;5113304;28;20204;-81
2023/01/25 06:58:52;;;;;;;18.97;8.53;;;;;;;-145.69;100.00;52723.63;5113509;28;20542;-82
2023/01/25 07:01:20;;;;;;;20.43;8.20;;;;;;;-145.69;100.00;52721.66;5113180;28;20204;-82
2023/01/25 07:03:48;;;;;;;20.63;7.90;;;;;;;-145.69;100.00;52751.34;5113918;28;20205;-82
2023/01/25 07:06:14;;;;;;;21.73;7.83;;;;;;;-145.69;100.00;52717.69;5112383;28;20204;-82
2023/01/25 07:08:41;;;;;;;19.27;7.93;;;;;;;-145.69;100.00;52705.81;5113541;28;20244;-82
2023/01/25 07:11:12;;;;;;;18.83;8.00;;;;;;;-145.69;100.00;52662.22;5113469;28;20197;-82
2023/01/25 07:13:40;;;;;;;16.00;7.03;;;;;;;-145.69;100.00;52701.84;5115194;28;20235;-82
2023/01/25 07:16:12;;;;;;;17.23;7.50;;;;;;;-145.69;100.00;52715.72;5116944;28;20213;-81
2023/01/25 07:18:39;;;;;;;17.63;7.70;;;;;;;-145.69;100.00;52713.72;5117219;28;20201;-82
2023/01/25 07:21:08;;;;;;;18.63;7.40;;;;;;;-145.69;100.00;52686.00;5116718;28;20193;-82
2023/01/25 07:23:36;;;;;;;17.67;7.80;;;;;;;-145.69;100.00;52729.56;5117029;28;20205;-83
2023/01/25 07:26:04;;;;;;;16.87;7.60;;;;;;;-145.69;100.00;52713.72;5118538;28;20709;-83
2023/01/25 07:28:31;;;;;;;20.77;8.23;;;;;;;-145.69;100.00;52687.97;5118581;28;20202;-83
2023/01/25 07:31:04;;;;;;;23.60;8.67;;;;;;;-145.69;100.00;52715.72;5117822;28;20208;-83
2023/01/25 07:33:32;;;;;;;21.83;8.90;;;;;;;-145.69;100.00;52695.91;5117677;28;20271;-82
2023/01/25 07:36:00;;;;;;;20.43;9.10;;;;;;;-145.69;100.00;52729.56;5116789;28;20221;-82
2023/01/25 07:38:26;;;;;;;18.20;8.17;;;;;;;-145.69;100.00;52705.81;5116792;28;20197;-82
2023/01/25 07:40:53;;;;;;;17.40;7.40;;;;;;;-145.69;100.00;52684.03;5117154;28;20201;-81
2023/01/25 07:43:20;;;;;;;19.13;8.13;;;;;;;-145.69;100.00;52693.94;5116353;28;20209;-81
2023/01/25 07:45:47;;;;;;;16.57;7.20;;;;;;;-145.69;100.00;52717.69;5116092;28;20585;-81
2023/01/25 07:48:14;;;;;;;13.33;6.53;;;;;;;-145.69;100.00;52689.97;5116009;28;20606;-81
2023/01/25 07:50:45;;;;;;;15.43;7.07;;;;;;;-145.69;100.00;52717.69;5115838;28;20193;-82
2023/01/25 07:53:12;;;;;;;12.10;6.47;;;;;;;-145.69;100.00;52693.94;5115759;28;20229;-82
2023/01/25 07:55:38;;;;;;;15.23;6.47;;;;;;;-145.69;100.00;52658.28;5116261;28;20197;-81
2023/01/25 07:58:05;;;;;;;12.87;6.37;;;;;;;-145.69;100.00;52701.84;5116182;28;20197;-81
2023/01/25 08:00:31;;;;;;;15.13;6.67;;;;;;;-145.69;100.00;52705.81;5116000;28;20223;-82
2023/01/25 08:02:58;;;;;;;13.87;6.17;;;;;;;-145.69;100.00;52689.97;5115934;28;20201;-81
2023/01/25 08:05:25;;;;;;;11.17;5.53;;;;;;;-145.69;100.00;52686.00;5116081;28;20197;-82
2023/01/25 08:07:52;;;;;;;14.83;6.80;;;;;;;-145.69;100.00;52695.91;5114214;28;20209;-82
2023/01/25 08:10:19;;;;;;;16.53;7.03;;;;;;;-145.69;100.00;52703.81;5115981;28;20197;-81
2023/01/25 08:12:46;;;;;;;15.80;7.43;;;;;;;-145.69;100.00;52721.66;5115709;28;20229;-81
2023/01/25 08:15:15;;;;;;;14.00;6.50;;;;;;;-145.69;100.00;52695.91;5115697;28;20202;-81
2023/01/25 08:17:42;;;;;;;14.80;7.17;;;;;;;-145.69;100.00;52721.66;5115233;28;20201;-82
2023/01/25 08:20:11;;;;;;;18.17;8.07;;;;;;;-145.69;100.00;52693.94;5114901;28;20192;-81
2023/01/25 08:22:37;;;;;;;14.50;6.60;;;;;;;-145.69;100.00;52721.66;5114923;28;20204;-81
2023/01/25 08:25:07;;;;;;;13.93;6.40;;;;;;;-145.69;100.00;52682.03;5114352;28;20767;-81
2023/01/25 08:27:33;;;;;;;16.00;6.87;;;;;;;-145.69;100.00;52693.94;5115227;28;20197;-81
2023/01/25 08:30:00;;;;;;;13.27;6.70;;;;;;;-145.69;100.00;52658.28;5095019;28;20561;-81
2023/01/25 08:32:26;;;;;;;15.20;6.93;;;;;;;-145.69;100.00;52678.09;5100149;28;20687;-81
2023/01/25 08:34:53;;;;;;;15.67;6.77;;;;;;;-145.69;100.00;52709.78;5115093;28;20208;-79
2023/01/25 08:37:19;;;;;;;12.10;5.90;;;;;;;-145.69;100.00;52731.56;5114730;28;20206;-78
2023/01/25 08:39:46;;;;;;;16.40;6.40;;;;;;;-145.69;100.00;52709.78;5114932;28;20189;-78
2023/01/25 08:42:14;;;;;;;14.87;6.37;;;;;;;-145.69;100.00;52721.66;5115133;28;20204;-77
2023/01/25 08:44:40;;;;;;;12.47;6.30;;;;;;;-145.69;100.00;52725.63;5114786;28;20235;-77
2023/01/25 08:47:07;;;;;;;15.53;6.87;;;;;;;-145.69;100.00;52705.81;5114957;28;20198;-77
2023/01/25 08:49:34;;;;;;;14.17;6.37;;;;;;;-145.69;100.00;52676.09;5114874;28;20213;-77
2023/01/25 08:52:00;;;;;;;13.17;6.57;;;;;;;-145.69;100.00;52693.94;5110759;28;20201;-77
2023/01/25 08:54:27;;;;;;;16.70;6.63;;;;;;;-145.69;100.00;52705.81;5114631;28;20257;-77
2023/01/25 08:56:54;;;;;;;16.97;7.37;;;;;;;-145.69;100.00;52709.78;5114566;28;20224;-78
2023/01/25 08:59:22;;;;;;;21.13;6.83;;;;;;;-145.69;100.00;52721.66;5114620;28;20201;-79
2023/01/25 09:01:52;;;;;;;14.07;6.17;;;;;;;-145.69;100.00;52709.78;5114201;28;20552;-78
2023/01/25 09:04:19;;;;;;;12.83;5.97;;;;;;;-145.69;100.00;52658.28;5094229;28;20206;-79
2023/01/25 09:06:45;;;;;;;13.83;6.53;;;;;;;-145.69;100.00;52684.03;5094401;28;20202;-78
2023/01/25 09:09:14;;;;;;;12.77;6.17;;;;;;;-145.69;100.00;52721.66;5094186;28;20202;-78
2023/01/25 09:11:40;;;;;;;12.00;5.67;;;;;;;-145.69;100.00;52678.09;5093789;28;20194;-78
2023/01/25 09:14:07;;;;;;;12.77;5.83;;;;;;;-145.69;100.00;52697.88;5093983;28;20226;-78
2023/01/25 09:16:36;;;;;;;13.97;5.63;;;;;;;-145.69;100.00;52717.69;5108799;28;20204;-79
2023/01/25 09:19:05;;;;;;;9.60;5.10;;;;;;;-145.69;100.00;52709.78;5114505;28;20204;-75
2023/01/25 09:21:33;;;;;;;11.43;4.80;;;;;;;-145.69;100.00;52682.03;5113990;28;20232;-78
2023/01/25 09:24:01;;;;;;;11.27;5.83;;;;;;;-145.69;100.00;52658.28;5114268;28;20193;-78
2023/01/25 09:26:27;;;;;;;9.43;4.77;;;;;;;-145.69;100.00;52707.78;5114112;28;20205;-78
2023/01/25 09:28:55;;;;;;;10.90;5.90;;;;;;;-145.69;100.00;52697.88;5114024;28;20201;-78
2023/01/25 09:31:23;;;;;;;9.50;5.13;;;;;;;-145.69;100.00;52687.97;5114176;28;20208;-78
2023/01/25 09:33:51;;;;;;;14.23;6.50;;;;;;;-145.69;100.00;52668.19;5114290;28;20251;-78
2023/01/25 09:36:18;;;;;;;11.80;5.70;;;;;;;-145.69;100.00;52680.06;5113886;28;20197;-78
2023/01/25 09:38:45;;;;;;;12.23;5.33;;;;;;;-145.69;100.00;52686.00;5114037;28;20201;-78
2023/01/25 09:41:28;;;;;;;12.30;5.87;;;;;;;-145.69;100.00;52729.56;5113552;28;20197;-78
2023/01/25 09:44:13;;;;;;;14.77;5.60;;;;;;;-145.69;100.00;52674.13;5113937;28;20584;-79
2023/01/25 09:46:44;;;;;;;15.67;6.40;;;;;;;-145.69;100.00;52709.78;5113636;28;20197;-79
2023/01/25 09:49:29;;;;;;;13.17;6.37;;;;;;;-145.69;100.00;52715.72;5113999;28;20197;-78
2023/01/25 09:52:12;;;;;;;14.53;6.63;;;;;;;-145.69;100.00;52701.84;5093159;28;20202;-78
2023/01/25 09:54:41;;;;;;;14.30;6.80;;;;;;;-145.69;100.00;52686.00;5096278;28;20228;-78
2023/01/25 09:57:15;;;;;;;10.87;5.53;;;;;;;-145.69;100.00;52662.22;5113647;28;20198;-79
2023/01/25 09:59:43;;;;;;;9.97;5.27;;;;;;;-145.69;100.00;52687.97;5113715;28;20202;-78
2023/01/25 10:02:27;;;;;;;12.43;6.03;;;;;;;-145.69;100.00;52703.81;5112939;28;20439;-78
2023/01/25 10:05:00;;;;;;;9.67;5.50;;;;;;;-145.69;100.00;52699.88;5113830;28;20205;-77
2023/01/25 10:07:33;;;;;;;9.97;5.13;;;;;;;-145.69;100.00;52686.00;5113639;28;20193;-80
2023/01/25 10:10:05;;;;;;;12.47;5.37;;;;;;;-145.69;100.00;52686.00;5113385;28;20217;-78
2023/01/25 10:12:36;;;;;;;11.17;5.17;;;;;;;-145.69;100.00;52676.09;5113810;28;20197;-79
2023/01/25 10:15:17;;;;;;;15.37;6.30;;;;;;;-145.69;100.00;52707.78;5113282;28;20679;-79
2023/01/25 10:17:44;;;;;;;10.83;5.77;;;;;;;-145.69;100.00;52687.97;5113410;28;20367;-78
2023/01/25 10:20:20;;;;;;;14.97;6.50;;;;;;;-145.69;100.00;52717.69;5113121;28;20283;-79
2023/01/25 10:22:52;;;;;;;14.30;6.33;;;;;;;-145.69;100.00;52662.22;5113255;28;20208;-79
2023/01/25 10:25:28;;;;;;;13.27;5.97;;;;;;;-145.69;100.00;52687.97;5112917;28;20200;-77
2023/01/25 10:28:08;;;;;;;11.33;6.17;;;;;;;-145.69;100.00;52674.13;5113029;28;20220;-79
2023/01/25 10:30:40;;;;;;;11.13;5.80;;;;;;;-145.69;100.00;52654.31;5113409;28;20205;-79
2023/01/25 10:33:13;;;;;;;12.50;5.87;;;;;;;-145.69;100.00;52678.09;5113188;28;20225;-79
2023/01/25 10:35:45;;;;;;;10.50;5.53;;;;;;;-145.69;100.00;52674.13;5112959;28;20197;-78
2023/01/25 10:38:17;;;;;;;12.00;5.87;;;;;;;-145.69;100.00;52658.28;5113270;28;20547;-76
2023/01/25 10:40:46;;;;;;;11.47;5.87;;;;;;;-145.69;100.00;52689.97;5113555;28;20201;-78
2023/01/25 10:43:18;;;;;;;14.57;6.40;;;;;;;-145.69;100.00;52693.94;5113375;28;20206;-77
2023/01/25 10:45:44;;;;;;;11.03;6.23;;;;;;;-145.69;100.00;52670.16;5112848;28;20600;-76
2023/01/25 10:48:17;;;;;;;13.33;6.60;;;;;;;-145.69;100.00;52678.09;5109561;28;20197;-75
2023/01/25 10:50:51;;;;;;;11.60;5.70;;;;;;;-145.69;100.00;52721.66;5116840;28;20193;-76
2023/01/25 10:53:27;;;;;;;12.30;5.67;;;;;;;-145.69;100.00;52707.78;5115738;28;20209;-76
2023/01/25 10:55:58;;;;;;;11.03;5.43;;;;;;;-145.69;100.00;52658.28;5116753;28;20193;-76
2023/01/25 10:58:34;;;;;;;13.03;6.07;;;;;;;-145.69;100.00;52666.19;5117078;28;20640;-76
2023/01/25 11:01:00;;;;;;;12.00;5.17;;;;;;;-145.69;100.00;52684.03;5116688;28;20197;-76
2023/01/25 11:03:39;;;;;;;9.90;5.10;;;;;;;-145.69;100.00;52666.19;5113825;28;20232;-76
2023/01/25 11:06:08;;;;;;;9.83;5.17;;;;;;;-145.69;100.00;52662.22;5116520;28;20193;-76
2023/01/25 11:08:37;;;;;;;13.87;6.37;;;;;;;-145.69;100.00;52693.94;5116289;28;20687;-76